createdAt,value
2023-05-14T00:01:00.188Z,53.58
2023-05-14T00:02:02.202Z,53.21
2023-05-14T00:03:04.538Z,52.71
2023-05-14T00:04:06.520Z,52.78
2023-05-14T00:05:10.064Z,53.57
2023-05-14T00:06:12.022Z,52.49
2023-05-14T00:07:13.868Z,52.90
2023-05-14T00:08:15.696Z,52.56
2023-05-14T00:09:17.477Z,53.46
2023-05-14T00:10:21.884Z,52.57
2023-05-14T00:11:24.197Z,52.82
2023-05-14T00:12:29.997Z,52.77
2023-05-14T00:13:31.750Z,53.16
2023-05-14T00:14:33.634Z,53.13
2023-05-14T00:15:35.434Z,53.46
2023-05-14T00:16:37.273Z,53.08
2023-05-14T00:17:39.146Z,53.52
2023-05-14T00:18:41.033Z,53.16
2023-05-14T00:19:42.887Z,53.12
2023-05-14T00:20:44.665Z,53.06
2023-05-14T00:21:48.535Z,53.19
2023-05-14T00:22:50.374Z,53.83
2023-05-14T00:23:52.121Z,53.83
2023-05-14T00:24:53.868Z,53.48
2023-05-14T00:25:55.599Z,53.36
2023-05-14T00:26:57.317Z,53.46
2023-05-14T00:27:59.018Z,54.41
2023-05-14T00:29:00.866Z,54.48
2023-05-14T00:30:05.634Z,54.10
2023-05-14T00:31:07.562Z,54.59
2023-05-14T00:32:09.320Z,54.03
2023-05-14T00:33:11.109Z,54.15
2023-05-14T00:34:12.934Z,54.18
2023-05-14T00:35:14.689Z,54.33
2023-05-14T00:36:16.512Z,54.48
2023-05-14T00:37:18.270Z,54.45
2023-05-14T00:38:20.030Z,53.98
2023-05-14T00:39:21.836Z,54.61
2023-05-14T00:40:28.271Z,54.50
2023-05-14T00:41:30.007Z,54.15
2023-05-14T00:42:31.775Z,54.66
2023-05-14T00:43:33.531Z,54.65
2023-05-14T00:44:35.997Z,54.50
2023-05-14T00:45:39.115Z,55.09
2023-05-14T00:46:41.285Z,54.75
2023-05-14T00:47:44.142Z,55.29
2023-05-14T00:48:46.401Z,55.39
2023-05-14T00:49:48.350Z,54.45
2023-05-14T00:50:51.898Z,54.58
2023-05-14T00:51:54.154Z,55.09
2023-05-14T00:52:56.009Z,55.16
2023-05-14T00:53:57.917Z,54.94
2023-05-14T00:55:03.122Z,55.62
2023-05-14T00:56:05.999Z,55.26
2023-05-14T00:57:08.507Z,55.36
2023-05-14T00:58:13.267Z,55.65
2023-05-14T00:59:14.999Z,55.70
2023-05-14T01:00:17.514Z,54.88
2023-05-14T01:01:19.353Z,55.63
2023-05-14T01:02:21.306Z,55.94
2023-05-14T01:03:23.255Z,55.98
2023-05-14T01:04:25.361Z,55.96
2023-05-14T01:05:55.589Z,55.51
2023-05-14T01:07:46.314Z,56.57
2023-05-14T01:09:20.172Z,56.64
2023-05-14T01:10:37.217Z,56.57
2023-05-14T01:12:32.102Z,56.94
2023-05-14T01:14:19.525Z,56.60
2023-05-14T01:15:33.380Z,56.55
2023-05-14T01:16:38.991Z,56.74
2023-05-14T01:17:59.085Z,57.19
2023-05-14T01:19:02.726Z,57.13
2023-05-14T01:20:05.905Z,56.75
2023-05-14T01:21:44.592Z,57.27
2023-05-14T01:22:46.362Z,56.92
2023-05-14T01:23:48.138Z,56.90
2023-05-14T01:24:49.894Z,57.14
2023-05-14T01:25:51.668Z,56.83
2023-05-14T01:27:16.062Z,57.65
2023-05-14T01:28:20.450Z,57.22
2023-05-14T01:29:26.099Z,57.41
2023-05-14T01:30:33.448Z,57.38
2023-05-14T01:31:40.580Z,57.66
2023-05-14T01:32:51.565Z,57.13
2023-05-14T01:33:58.633Z,57.61
2023-05-14T01:35:02.604Z,57.91
2023-05-14T01:36:05.692Z,57.84
2023-05-14T01:37:10.894Z,57.75
2023-05-14T01:38:17.956Z,58.41
2023-05-14T01:39:21.226Z,58.16
2023-05-14T01:40:24.738Z,58.63
2023-05-14T01:41:27.641Z,57.92
2023-05-14T01:42:29.923Z,58.62
2023-05-14T01:43:32.207Z,58.29
2023-05-14T01:44:34.519Z,57.97
2023-05-14T01:45:37.224Z,58.52
2023-05-14T01:46:39.291Z,58.46
2023-05-14T01:47:41.127Z,58.77
2023-05-14T01:48:42.924Z,58.97
2023-05-14T01:49:44.695Z,58.65
2023-05-14T01:50:46.496Z,58.66
2023-05-14T01:51:48.252Z,59.16
2023-05-14T01:52:51.188Z,58.08
2023-05-14T01:53:53.104Z,58.12
2023-05-14T01:54:54.827Z,58.74
2023-05-14T01:55:56.577Z,59.02
2023-05-14T01:56:58.291Z,58.64
2023-05-14T01:58:00.013Z,59.41
2023-05-14T01:59:01.719Z,59.05
2023-05-14T02:00:04.310Z,58.78
2023-05-14T02:01:06.141Z,58.87
2023-05-14T02:02:08.061Z,58.75
2023-05-14T02:03:09.811Z,58.66
2023-05-14T02:04:11.612Z,58.38
2023-05-14T02:05:13.881Z,58.51
2023-05-14T02:06:15.707Z,59.24
2023-05-14T02:07:17.486Z,59.11
2023-05-14T02:08:19.245Z,59.36
2023-05-14T02:09:21.128Z,59.58
2023-05-14T02:10:23.103Z,59.37
2023-05-14T02:11:24.959Z,59.83
2023-05-14T02:12:26.712Z,59.70
2023-05-14T02:13:28.442Z,59.46
2023-05-14T02:14:30.254Z,59.04
2023-05-14T02:15:31.999Z,59.63
2023-05-14T02:16:33.884Z,59.27
2023-05-14T02:17:35.796Z,59.67
2023-05-14T02:18:37.578Z,59.28
2023-05-14T02:19:39.308Z,59.30
2023-05-14T02:20:41.019Z,59.34
2023-05-14T02:21:42.754Z,59.48
2023-05-14T02:22:46.077Z,59.50
2023-05-14T02:23:49.415Z,59.52
2023-05-14T02:24:51.400Z,60.00
2023-05-14T02:25:53.178Z,59.13
2023-05-14T02:26:55.030Z,60.02
2023-05-14T02:27:56.758Z,59.22
2023-05-14T02:28:58.578Z,59.07
2023-05-14T02:30:01.092Z,59.37
2023-05-14T02:31:02.945Z,59.32
2023-05-14T02:32:05.627Z,59.63
2023-05-14T02:33:07.554Z,59.65
2023-05-14T02:34:10.383Z,58.80
2023-05-14T02:35:12.145Z,59.17
2023-05-14T02:36:13.986Z,58.98
2023-05-14T02:37:15.952Z,59.54
2023-05-14T02:38:17.828Z,59.09
2023-05-14T02:39:19.565Z,59.12
2023-05-14T02:40:21.525Z,58.82
2023-05-14T02:41:23.366Z,59.01
2023-05-14T02:42:25.108Z,59.13
2023-05-14T02:43:26.922Z,58.39
2023-05-14T02:44:28.699Z,58.89
2023-05-14T02:45:30.494Z,58.51
2023-05-14T02:46:32.804Z,59.01
2023-05-14T02:47:37.526Z,58.63
2023-05-14T02:48:39.809Z,58.54
2023-05-14T02:49:41.595Z,58.30
2023-05-14T02:50:43.358Z,59.03
2023-05-14T02:51:45.169Z,59.05
2023-05-14T02:52:46.991Z,58.48
2023-05-14T02:53:49.247Z,58.34
2023-05-14T02:54:50.975Z,58.11
2023-05-14T02:55:52.736Z,58.95
2023-05-14T02:56:54.520Z,58.78
2023-05-14T02:57:56.778Z,58.83
2023-05-14T02:58:58.553Z,59.00
2023-05-14T03:00:00.650Z,58.65
2023-05-14T03:01:02.946Z,58.59
2023-05-14T03:02:05.562Z,58.78
2023-05-14T03:03:07.717Z,58.37
2023-05-14T03:04:10.073Z,57.92
2023-05-14T03:05:11.817Z,58.46
2023-05-14T03:06:13.546Z,58.63
2023-05-14T03:07:15.276Z,58.46
2023-05-14T03:08:16.987Z,58.09
2023-05-14T03:09:18.728Z,57.95
2023-05-14T03:10:20.845Z,57.57
2023-05-14T03:11:22.826Z,57.91
2023-05-14T03:12:24.634Z,57.79
2023-05-14T03:13:26.483Z,57.81
2023-05-14T03:14:28.273Z,57.39
2023-05-14T03:15:30.452Z,58.01
2023-05-14T03:16:32.236Z,58.02
2023-05-14T03:17:34.093Z,57.70
2023-05-14T03:18:36.627Z,57.56
2023-05-14T03:19:38.515Z,57.61
2023-05-14T03:20:40.873Z,57.83
2023-05-14T03:21:42.946Z,57.58
2023-05-14T03:22:44.858Z,57.18
2023-05-14T03:23:46.611Z,57.26
2023-05-14T03:24:48.370Z,57.84
2023-05-14T03:25:50.147Z,57.68
2023-05-14T03:26:51.911Z,57.85
2023-05-14T03:27:53.663Z,57.07
2023-05-14T03:28:55.550Z,57.61
2023-05-14T03:29:57.250Z,57.54
2023-05-14T03:30:59.138Z,57.58
2023-05-14T03:32:01.167Z,57.38
2023-05-14T03:33:03.133Z,56.89
2023-05-14T03:34:04.913Z,56.63
2023-05-14T03:35:07.920Z,57.11
2023-05-14T03:36:09.890Z,57.32
2023-05-14T03:37:11.797Z,57.26
2023-05-14T03:38:13.581Z,57.12
2023-05-14T03:39:19.584Z,57.07
2023-05-14T03:40:21.842Z,57.40
2023-05-14T03:41:23.748Z,56.93
2023-05-14T03:42:25.571Z,56.99
2023-05-14T03:43:27.392Z,56.73
2023-05-14T03:44:29.169Z,57.24
2023-05-14T03:45:32.196Z,56.52
2023-05-14T03:46:33.976Z,55.99
2023-05-14T03:47:35.785Z,56.90
2023-05-14T03:48:37.586Z,56.76
2023-05-14T03:49:39.376Z,56.32
2023-05-14T03:50:41.320Z,56.15
2023-05-14T03:51:43.257Z,55.64
2023-05-14T03:52:45.828Z,55.81
2023-05-14T03:53:47.754Z,55.97
2023-05-14T03:54:49.591Z,56.75
2023-05-14T03:55:51.436Z,56.28
2023-05-14T03:56:53.206Z,56.45
2023-05-14T03:57:54.935Z,56.81
2023-05-14T03:58:56.650Z,56.33
2023-05-14T03:59:58.596Z,55.82
2023-05-14T04:01:00.614Z,56.13
2023-05-14T04:02:02.434Z,56.36
2023-05-14T04:03:04.412Z,56.47
2023-05-14T04:04:06.682Z,56.19
2023-05-14T04:05:09.173Z,56.34
2023-05-14T04:06:10.947Z,55.89
2023-05-14T04:07:12.702Z,56.13
2023-05-14T04:08:14.446Z,56.36
2023-05-14T04:09:16.297Z,56.56
2023-05-14T04:10:18.369Z,56.46
2023-05-14T04:11:21.293Z,56.33
2023-05-14T04:12:23.102Z,56.83
2023-05-14T04:13:24.962Z,56.68
2023-05-14T04:14:26.715Z,56.24
2023-05-14T04:15:28.512Z,56.39
2023-05-14T04:16:30.330Z,56.44
2023-05-14T04:17:32.986Z,56.03
2023-05-14T04:18:35.756Z,56.08
2023-05-14T04:19:37.568Z,56.04
2023-05-14T04:20:39.344Z,56.31
2023-05-14T04:21:41.201Z,56.87
2023-05-14T04:22:42.944Z,56.27
2023-05-14T04:23:44.786Z,56.43
2023-05-14T04:24:46.525Z,56.39
2023-05-14T04:25:48.292Z,56.08
2023-05-14T04:26:50.069Z,56.22
2023-05-14T04:27:51.847Z,56.05
2023-05-14T04:28:53.583Z,55.99
2023-05-14T04:29:55.299Z,56.83
2023-05-14T04:30:57.072Z,56.14
2023-05-14T04:31:58.904Z,56.22
2023-05-14T04:33:00.755Z,55.63
2023-05-14T04:34:02.543Z,56.54
2023-05-14T04:35:05.924Z,55.87
2023-05-14T04:36:08.259Z,55.94
2023-05-14T04:37:10.084Z,56.66
2023-05-14T04:38:13.990Z,56.28
2023-05-14T04:39:15.740Z,56.34
2023-05-14T04:40:17.719Z,56.35
2023-05-14T04:41:19.467Z,56.63
2023-05-14T04:42:21.415Z,56.44
2023-05-14T04:43:23.153Z,55.73
2023-05-14T04:44:24.895Z,56.62
2023-05-14T04:45:26.683Z,56.40
2023-05-14T04:46:28.970Z,56.18
2023-05-14T04:47:31.739Z,56.23
2023-05-14T04:48:33.463Z,55.81
2023-05-14T04:49:35.270Z,56.36
2023-05-14T04:50:37.026Z,55.55
2023-05-14T04:51:38.815Z,54.07
2023-05-14T04:52:40.664Z,53.04
2023-05-14T04:53:42.435Z,54.58
2023-05-14T04:54:44.306Z,53.93
2023-05-14T04:55:46.124Z,55.02
2023-05-14T04:56:47.890Z,53.95
2023-05-14T04:57:49.628Z,53.40
2023-05-14T04:58:51.339Z,52.40
2023-05-14T04:59:53.101Z,51.85
2023-05-14T05:00:54.937Z,52.92
2023-05-14T05:01:56.853Z,53.71
2023-05-14T05:02:58.706Z,53.75
2023-05-14T05:04:00.812Z,52.85
2023-05-14T05:05:04.181Z,51.63
2023-05-14T05:06:06.711Z,50.85
2023-05-14T05:07:08.569Z,50.11
2023-05-14T05:08:11.350Z,50.01
2023-05-14T05:09:14.160Z,49.70
2023-05-14T05:10:16.018Z,50.20
2023-05-14T05:11:17.900Z,50.43
2023-05-14T05:12:19.675Z,50.55
2023-05-14T05:13:21.477Z,48.75
2023-05-14T05:14:23.304Z,49.00
2023-05-14T05:15:26.573Z,48.59
2023-05-14T05:16:28.692Z,48.96
2023-05-14T05:17:30.888Z,49.55
2023-05-14T05:18:32.812Z,49.38
2023-05-14T05:19:43.272Z,49.78
2023-05-14T05:20:46.180Z,48.22
2023-05-14T05:21:48.011Z,47.78
2023-05-14T05:22:49.718Z,47.25
2023-05-14T05:23:51.489Z,47.98
2023-05-14T05:24:53.381Z,47.14
2023-05-14T05:25:55.253Z,47.28
2023-05-14T05:26:56.989Z,47.53
2023-05-14T05:27:58.698Z,46.48
2023-05-14T05:29:00.815Z,46.84
2023-05-14T05:30:03.892Z,46.19
2023-05-14T05:31:05.765Z,46.88
2023-05-14T05:32:08.175Z,46.43
2023-05-14T05:33:09.975Z,46.14
2023-05-14T05:34:11.879Z,45.42
2023-05-14T05:35:13.662Z,46.28
2023-05-14T05:36:15.486Z,46.08
2023-05-14T05:37:17.422Z,45.08
2023-05-14T05:38:19.202Z,45.72
2023-05-14T05:39:20.996Z,46.13
2023-05-14T05:40:22.956Z,46.14
2023-05-14T05:41:25.001Z,45.93
2023-05-14T05:42:26.700Z,45.12
2023-05-14T05:43:28.565Z,45.30
2023-05-14T05:44:30.657Z,45.94
2023-05-14T05:45:32.559Z,45.73
2023-05-14T05:46:34.405Z,46.03
2023-05-14T05:47:36.290Z,45.34
2023-05-14T05:48:38.018Z,45.41
2023-05-14T05:49:39.771Z,45.34
2023-05-14T05:50:41.527Z,45.45
2023-05-14T05:51:43.250Z,45.29
2023-05-14T05:52:45.250Z,45.40
2023-05-14T05:53:47.021Z,44.90
2023-05-14T05:54:48.850Z,44.76
2023-05-14T05:55:53.606Z,44.41
2023-05-14T05:56:55.452Z,44.32
2023-05-14T05:57:57.159Z,44.65
2023-05-14T05:58:58.908Z,44.13
2023-05-14T06:00:01.023Z,43.77
2023-05-14T06:01:02.894Z,43.95
2023-05-14T06:02:05.080Z,44.00
2023-05-14T06:03:07.157Z,43.07
2023-05-14T06:04:09.957Z,43.95
2023-05-14T06:05:12.200Z,43.70
2023-05-14T06:06:15.469Z,43.93
2023-05-14T06:07:17.183Z,43.99
2023-05-14T06:08:19.505Z,43.79
2023-05-14T06:09:21.356Z,44.52
2023-05-14T06:10:23.291Z,44.27
2023-05-14T06:11:25.325Z,43.69
2023-05-14T06:12:27.215Z,44.18
2023-05-14T06:13:29.027Z,43.86
2023-05-14T06:14:30.789Z,43.59
2023-05-14T06:15:32.581Z,43.92
2023-05-14T06:16:34.411Z,43.51
2023-05-14T06:17:36.216Z,43.48
2023-05-14T06:18:37.984Z,42.63
2023-05-14T06:19:39.827Z,43.01
2023-05-14T06:20:41.665Z,42.44
2023-05-14T06:21:43.414Z,42.96
2023-05-14T06:22:45.221Z,41.74
2023-05-14T06:23:47.199Z,42.74
2023-05-14T06:24:49.065Z,42.39
2023-05-14T06:25:51.073Z,42.00
2023-05-14T06:26:52.795Z,41.43
2023-05-14T06:27:54.530Z,41.74
2023-05-14T06:28:56.476Z,41.08
2023-05-14T06:29:58.295Z,42.07
2023-05-14T06:31:00.152Z,41.33
2023-05-14T06:32:04.357Z,41.27
2023-05-14T06:33:06.178Z,41.57
2023-05-14T06:34:08.082Z,42.15
2023-05-14T06:35:10.458Z,42.01
2023-05-14T06:36:12.241Z,41.81
2023-05-14T06:37:14.009Z,42.38
2023-05-14T06:38:15.733Z,42.49
2023-05-14T06:39:17.464Z,42.20
2023-05-14T06:40:19.485Z,42.81
2023-05-14T06:41:21.265Z,43.04
2023-05-14T06:42:23.014Z,43.30
2023-05-14T06:43:24.848Z,43.16
2023-05-14T06:44:27.738Z,42.46
2023-05-14T06:45:32.376Z,43.11
2023-05-14T06:46:34.935Z,43.21
2023-05-14T06:47:36.693Z,43.30
2023-05-14T06:48:38.427Z,43.16
2023-05-14T06:49:40.274Z,42.61
2023-05-14T06:50:42.005Z,43.43
2023-05-14T06:51:43.785Z,43.13
2023-05-14T06:52:45.622Z,43.35
2023-05-14T06:53:48.808Z,43.15
2023-05-14T06:54:50.631Z,43.28
2023-05-14T06:55:52.377Z,43.69
2023-05-14T06:56:54.752Z,43.34
2023-05-14T06:57:56.512Z,43.31
2023-05-14T06:58:58.223Z,43.05
2023-05-14T07:00:00.092Z,43.02
2023-05-14T07:01:01.958Z,43.03
2023-05-14T07:02:03.735Z,43.10
2023-05-14T07:03:05.935Z,43.16
2023-05-14T07:04:07.912Z,43.33
2023-05-14T07:05:11.240Z,43.27
2023-05-14T07:06:13.819Z,42.70
2023-05-14T07:07:18.200Z,43.49
2023-05-14T07:08:19.906Z,43.26
2023-05-14T07:09:21.993Z,43.34
2023-05-14T07:10:24.990Z,43.18
2023-05-14T07:11:26.844Z,42.80
2023-05-14T07:12:28.601Z,43.05
2023-05-14T07:13:30.345Z,43.27
2023-05-14T07:14:32.118Z,43.65
2023-05-14T07:15:34.254Z,43.57
2023-05-14T07:16:36.662Z,43.08
2023-05-14T07:17:38.406Z,42.90
2023-05-14T07:18:40.347Z,43.25
2023-05-14T07:19:42.154Z,43.34
2023-05-14T07:20:43.904Z,43.32
2023-05-14T07:21:45.619Z,43.03
2023-05-14T07:22:47.822Z,43.69
2023-05-14T07:23:49.566Z,43.04
2023-05-14T07:24:51.347Z,43.11
2023-05-14T07:25:53.139Z,43.27
2023-05-14T07:26:57.128Z,43.33
2023-05-14T07:27:58.883Z,42.90
2023-05-14T07:29:00.697Z,43.07
2023-05-14T07:30:02.943Z,42.80
2023-05-14T07:31:08.901Z,42.98
2023-05-14T07:32:11.798Z,43.15
2023-05-14T07:33:15.257Z,42.59
2023-05-14T07:34:17.004Z,43.14
2023-05-14T07:35:18.738Z,42.94
2023-05-14T07:36:20.578Z,43.06
2023-05-14T07:37:24.199Z,42.36
2023-05-14T07:38:26.092Z,42.22
2023-05-14T07:39:27.918Z,42.78
2023-05-14T07:40:29.634Z,42.72
2023-05-14T07:41:31.356Z,42.43
2023-05-14T07:42:36.409Z,42.95
2023-05-14T07:43:40.422Z,42.88
2023-05-14T07:44:42.178Z,42.97
2023-05-14T07:45:45.118Z,42.42
2023-05-14T07:46:47.647Z,42.14
2023-05-14T07:47:52.511Z,42.26
2023-05-14T07:48:54.547Z,41.64
2023-05-14T07:49:57.593Z,42.27
2023-05-14T07:50:59.919Z,41.39
2023-05-14T07:52:01.695Z,41.81
2023-05-14T07:53:03.614Z,41.47
2023-05-14T07:54:05.637Z,41.77
2023-05-14T07:55:08.401Z,40.84
2023-05-14T07:56:10.455Z,40.95
2023-05-14T07:57:12.226Z,40.92
2023-05-14T07:58:14.121Z,40.36
2023-05-14T07:59:15.876Z,40.37
2023-05-14T08:00:18.013Z,40.29
2023-05-14T08:01:19.782Z,39.05
2023-05-14T08:02:21.660Z,39.33
2023-05-14T08:03:23.585Z,38.62
2023-05-14T08:04:26.339Z,38.61
2023-05-14T08:05:28.125Z,38.58
2023-05-14T08:06:29.932Z,39.46
2023-05-14T08:07:31.703Z,39.74
2023-05-14T08:08:33.613Z,39.46
2023-05-14T08:09:35.596Z,38.90
2023-05-14T08:10:37.390Z,38.11
2023-05-14T08:11:39.281Z,37.63
2023-05-14T08:12:42.648Z,36.85
2023-05-14T08:13:44.410Z,36.73
2023-05-14T08:14:46.248Z,36.50
2023-05-14T08:15:48.075Z,36.81
2023-05-14T08:16:50.016Z,36.47
2023-05-14T08:17:51.903Z,36.10
2023-05-14T08:18:53.747Z,36.06
2023-05-14T08:19:55.617Z,36.10
2023-05-14T08:20:57.877Z,36.84
2023-05-14T08:21:59.661Z,36.56
2023-05-14T08:23:01.510Z,36.45
2023-05-14T08:24:03.582Z,36.48
2023-05-14T08:25:06.434Z,36.24
2023-05-14T08:26:08.567Z,35.75
2023-05-14T08:27:10.403Z,35.93
2023-05-14T08:28:12.195Z,36.41
2023-05-14T08:29:16.119Z,36.36
2023-05-14T08:30:18.415Z,36.92
2023-05-14T08:31:20.395Z,36.18
2023-05-14T08:32:24.027Z,35.38
2023-05-14T08:33:26.141Z,35.31
2023-05-14T08:34:28.628Z,34.90
2023-05-14T08:35:30.460Z,35.44
2023-05-14T08:36:32.810Z,35.36
2023-05-14T08:37:34.660Z,35.83
2023-05-14T08:38:36.412Z,35.86
2023-05-14T08:39:38.142Z,35.00
2023-05-14T08:40:40.227Z,35.48
2023-05-14T08:41:42.394Z,35.87
2023-05-14T08:42:45.044Z,36.08
2023-05-14T08:44:14.135Z,35.94
2023-05-14T08:45:33.720Z,35.60
2023-05-14T08:46:38.886Z,36.17
2023-05-14T08:47:40.765Z,36.16
2023-05-14T08:48:48.051Z,36.54
2023-05-14T08:50:04.513Z,35.82
2023-05-14T08:51:08.964Z,35.66
2023-05-14T08:52:12.308Z,35.38
2023-05-14T08:53:14.544Z,34.40
2023-05-14T08:54:17.857Z,34.27
2023-05-14T08:55:20.531Z,33.55
2023-05-14T08:56:24.305Z,33.54
2023-05-14T08:57:28.388Z,33.92
2023-05-14T08:58:30.419Z,33.82
2023-05-14T08:59:32.375Z,32.91
2023-05-14T09:00:34.393Z,33.69
2023-05-14T09:01:39.726Z,33.17
2023-05-14T09:02:44.356Z,33.41
2023-05-14T09:03:47.909Z,33.82
2023-05-14T09:04:56.714Z,33.96
2023-05-14T09:06:00.328Z,33.55
2023-05-14T09:07:03.981Z,34.21
2023-05-14T09:08:05.922Z,34.17
2023-05-14T09:09:07.880Z,34.23
2023-05-14T09:10:11.322Z,34.81
2023-05-14T09:11:13.183Z,33.88
2023-05-14T09:12:15.041Z,33.71
2023-05-14T09:13:16.813Z,33.71
2023-05-14T09:14:19.761Z,33.63
2023-05-14T09:15:21.887Z,33.84
2023-05-14T09:16:26.758Z,33.71
2023-05-14T09:17:28.755Z,32.57
2023-05-14T09:18:30.742Z,32.52
2023-05-14T09:19:32.895Z,32.11
2023-05-14T09:20:34.864Z,31.38
2023-05-14T09:21:37.405Z,30.54
2023-05-14T09:22:39.833Z,29.59
2023-05-14T09:23:45.324Z,29.76
2023-05-14T09:25:01.546Z,29.63
2023-05-14T09:26:06.293Z,29.73
2023-05-14T09:27:10.941Z,29.53
2023-05-14T09:28:12.784Z,29.27
2023-05-14T09:29:14.533Z,29.14
2023-05-14T09:30:16.496Z,29.25
2023-05-14T09:31:18.257Z,28.92
2023-05-14T09:32:20.545Z,28.93
2023-05-14T09:33:29.441Z,29.48
2023-05-14T09:34:37.972Z,29.06
2023-05-14T09:35:41.391Z,28.21
2023-05-14T09:36:43.148Z,27.33
2023-05-14T09:37:55.578Z,27.29
2023-05-14T09:38:57.893Z,25.81
2023-05-14T09:40:11.733Z,25.38
2023-05-14T09:41:13.526Z,25.22
2023-05-14T09:42:16.598Z,25.63
2023-05-14T09:43:18.416Z,26.18
2023-05-14T09:44:22.575Z,26.33
2023-05-14T09:45:24.339Z,25.61
2023-05-14T09:46:30.100Z,25.83
2023-05-14T09:47:32.799Z,25.58
2023-05-14T09:48:34.818Z,25.12
2023-05-14T09:49:36.603Z,24.10
2023-05-14T09:50:46.718Z,23.88
2023-05-14T09:51:51.953Z,24.15
2023-05-14T09:52:56.111Z,23.48
2023-05-14T09:53:57.859Z,23.39
2023-05-14T09:55:01.433Z,23.27
2023-05-14T09:56:03.424Z,23.36
2023-05-14T09:57:05.822Z,23.31
2023-05-14T09:58:07.532Z,23.68
2023-05-14T09:59:09.377Z,24.03
2023-05-14T10:00:12.863Z,23.63
2023-05-14T10:01:20.266Z,24.89
2023-05-14T10:02:30.011Z,24.89
2023-05-14T10:03:32.921Z,24.80
2023-05-14T10:04:37.159Z,24.27
2023-05-14T10:05:42.471Z,24.61
2023-05-14T10:06:53.043Z,25.08
2023-05-14T10:08:01.524Z,25.19
2023-05-14T10:09:10.045Z,24.96
2023-05-14T10:10:19.884Z,25.82
2023-05-14T10:11:28.306Z,26.57
2023-05-14T10:12:36.364Z,26.34
2023-05-14T10:13:49.972Z,26.44
2023-05-14T10:14:57.865Z,27.91
2023-05-14T10:16:16.564Z,28.41
2023-05-14T10:17:22.050Z,29.25
2023-05-14T10:18:25.192Z,30.08
2023-05-14T10:19:32.371Z,29.97
2023-05-14T10:20:36.647Z,30.00
2023-05-14T10:21:44.435Z,30.37
2023-05-14T10:22:46.675Z,30.67
2023-05-14T10:23:51.114Z,30.96
2023-05-14T10:24:54.963Z,30.51
2023-05-14T10:25:59.419Z,31.03
2023-05-14T10:27:02.735Z,30.97
2023-05-14T10:28:06.135Z,31.34
2023-05-14T10:29:11.259Z,30.95
2023-05-14T10:30:13.441Z,30.91
2023-05-14T10:31:15.690Z,31.06
2023-05-14T10:32:22.534Z,31.42
2023-05-14T10:33:24.244Z,31.72
2023-05-14T10:34:45.882Z,31.73
2023-05-14T10:36:04.460Z,31.91
2023-05-14T10:37:18.603Z,32.55
2023-05-14T10:38:27.254Z,32.96
2023-05-14T10:39:52.288Z,32.96
2023-05-14T10:41:06.175Z,32.73
2023-05-14T10:42:13.108Z,32.76
2023-05-14T10:43:17.582Z,32.85
2023-05-14T10:44:21.903Z,32.93
2023-05-14T10:45:23.827Z,33.14
2023-05-14T10:46:26.076Z,32.33
2023-05-14T10:47:32.891Z,32.98
2023-05-14T10:48:37.856Z,33.02
2023-05-14T10:49:43.364Z,32.72
2023-05-14T10:50:51.044Z,32.38
2023-05-14T10:51:54.217Z,32.54
2023-05-14T10:52:57.097Z,32.11
2023-05-14T10:54:01.612Z,32.29
2023-05-14T10:55:10.755Z,33.16
2023-05-14T10:56:14.801Z,33.12
2023-05-14T10:57:19.926Z,33.04
2023-05-14T10:58:22.435Z,32.90
2023-05-14T10:59:28.300Z,32.34
2023-05-14T11:00:35.330Z,32.84
2023-05-14T11:01:40.130Z,33.04
2023-05-14T11:02:44.903Z,33.40
2023-05-14T11:03:47.305Z,32.68
2023-05-14T11:05:19.332Z,32.85
2023-05-14T11:06:21.379Z,32.27
2023-05-14T11:07:31.099Z,32.24
2023-05-14T11:08:33.864Z,32.73
2023-05-14T11:09:37.640Z,32.20
2023-05-14T11:10:41.888Z,33.01
2023-05-14T11:11:43.968Z,32.19
2023-05-14T11:12:51.389Z,32.71
2023-05-14T11:13:54.075Z,33.06
2023-05-14T11:15:02.162Z,33.05
2023-05-14T11:16:18.991Z,32.84
2023-05-14T11:17:30.186Z,33.23
2023-05-14T11:18:38.450Z,33.01
2023-05-14T11:19:44.914Z,33.43
2023-05-14T11:20:46.875Z,34.07
2023-05-14T11:21:48.724Z,34.09
2023-05-14T11:22:53.535Z,34.18
2023-05-14T11:23:57.142Z,34.23
2023-05-14T11:24:58.905Z,34.18
2023-05-14T11:26:00.819Z,33.85
2023-05-14T11:27:02.600Z,34.59
2023-05-14T11:28:05.302Z,33.97
2023-05-14T11:29:07.131Z,33.92
2023-05-14T11:30:22.182Z,33.67
2023-05-14T11:31:25.343Z,33.84
2023-05-14T11:32:27.524Z,34.27
2023-05-14T11:33:29.663Z,34.31
2023-05-14T11:34:31.835Z,34.52
2023-05-14T11:35:33.597Z,34.72
2023-05-14T11:36:37.195Z,35.08
2023-05-14T11:37:39.131Z,34.63
2023-05-14T11:38:50.568Z,34.06
2023-05-14T11:39:55.692Z,34.61
2023-05-14T11:41:00.053Z,34.16
2023-05-14T11:42:16.754Z,34.33
2023-05-14T11:43:18.833Z,33.73
2023-05-14T11:44:20.706Z,33.40
2023-05-14T11:45:27.662Z,33.73
2023-05-14T11:46:30.928Z,34.15
2023-05-14T11:47:32.947Z,33.88
2023-05-14T11:48:35.189Z,34.21
2023-05-14T11:49:37.952Z,33.68
2023-05-14T11:50:40.445Z,34.18
2023-05-14T11:51:42.216Z,34.36
2023-05-14T11:52:43.995Z,33.64
2023-05-14T11:53:46.482Z,34.40
2023-05-14T11:54:51.597Z,34.51
2023-05-14T11:55:55.005Z,34.26
2023-05-14T11:56:59.537Z,33.78
2023-05-14T11:58:01.530Z,34.41
2023-05-14T11:59:03.345Z,33.91
2023-05-14T12:00:13.417Z,34.24
2023-05-14T12:01:15.816Z,34.21
2023-05-14T12:02:19.805Z,34.39
2023-05-14T12:03:25.995Z,35.12
2023-05-14T12:04:29.441Z,34.81
2023-05-14T12:05:31.282Z,34.55
2023-05-14T12:06:33.193Z,34.45
2023-05-14T12:07:35.873Z,34.74
2023-05-14T12:08:37.724Z,34.36
2023-05-14T12:09:49.506Z,34.55
2023-05-14T12:10:53.602Z,34.01
2023-05-14T12:11:55.336Z,34.46
2023-05-14T12:12:57.100Z,34.81
2023-05-14T12:14:09.952Z,34.63
2023-05-14T12:15:14.680Z,34.88
2023-05-14T12:16:17.758Z,34.99
2023-05-14T12:17:23.129Z,35.01
2023-05-14T12:18:28.617Z,34.73
2023-05-14T12:19:30.820Z,34.48
2023-05-14T12:20:32.604Z,34.73
2023-05-14T12:21:35.019Z,35.21
2023-05-14T12:22:37.276Z,34.64
2023-05-14T12:23:39.672Z,35.08
2023-05-14T12:24:43.582Z,34.97
2023-05-14T12:25:54.070Z,35.00
2023-05-14T12:26:57.397Z,34.93
2023-05-14T12:27:59.110Z,34.94
2023-05-14T12:29:03.451Z,35.10
2023-05-14T12:31:13.112Z,34.76
2023-05-14T12:32:14.869Z,34.57
2023-05-14T12:33:16.630Z,34.26
2023-05-14T12:34:18.455Z,33.66
2023-05-14T12:35:22.880Z,33.87
2023-05-14T12:36:25.229Z,33.89
2023-05-14T12:37:30.058Z,33.96
2023-05-14T12:38:32.994Z,34.00
2023-05-14T12:39:35.005Z,33.71
2023-05-14T12:40:38.754Z,33.13
2023-05-14T12:41:42.503Z,33.05
2023-05-14T12:42:44.234Z,32.80
2023-05-14T12:43:49.552Z,33.41
2023-05-14T12:44:51.295Z,33.61
2023-05-14T12:45:53.022Z,32.91
2023-05-14T12:46:55.151Z,33.36
2023-05-14T12:47:56.979Z,32.93
2023-05-14T12:48:58.842Z,32.56
2023-05-14T12:50:00.630Z,32.75
2023-05-14T12:51:02.426Z,32.81
2023-05-14T12:52:25.726Z,32.97
2023-05-14T12:53:27.388Z,32.79
2023-05-14T12:54:29.141Z,32.44
2023-05-14T12:55:31.149Z,32.98
2023-05-14T12:56:32.956Z,32.92
2023-05-14T12:57:35.434Z,32.81
2023-05-14T12:58:38.039Z,32.67
2023-05-14T12:59:39.799Z,33.63
2023-05-14T13:00:42.098Z,32.90
2023-05-14T13:01:43.913Z,33.24
2023-05-14T13:02:45.901Z,32.88
2023-05-14T13:03:47.779Z,33.03
2023-05-14T13:04:49.531Z,32.77
2023-05-14T13:05:53.362Z,31.96
2023-05-14T13:06:55.325Z,32.59
2023-05-14T13:08:02.205Z,32.37
2023-05-14T13:09:04.169Z,31.85
2023-05-14T13:10:07.129Z,31.78
2023-05-14T13:11:08.873Z,31.41
2023-05-14T13:12:10.683Z,31.60
2023-05-14T13:13:12.941Z,32.02
2023-05-14T13:14:14.754Z,31.66
2023-05-14T13:15:16.765Z,31.68
2023-05-14T13:16:18.651Z,32.38
2023-05-14T13:17:20.770Z,31.82
2023-05-14T13:18:22.628Z,31.85
2023-05-14T13:19:24.443Z,32.05
2023-05-14T13:20:27.557Z,31.74
2023-05-14T13:21:29.349Z,31.99
2023-05-14T13:22:31.122Z,32.02
2023-05-14T13:23:32.870Z,31.94
2023-05-14T13:24:35.502Z,31.98
2023-05-14T13:25:37.531Z,32.45
2023-05-14T13:26:39.330Z,32.34
2023-05-14T13:27:41.290Z,32.09
2023-05-14T13:28:43.306Z,32.19
2023-05-14T13:29:45.054Z,32.39
2023-05-14T13:31:10.430Z,32.71
2023-05-14T13:32:12.259Z,32.08
2023-05-14T13:33:14.181Z,32.08
2023-05-14T13:34:16.351Z,32.30
2023-05-14T13:35:18.232Z,32.61
2023-05-14T13:36:20.166Z,32.72
2023-05-14T13:37:22.080Z,32.95
2023-05-14T13:38:24.029Z,32.48
2023-05-14T13:39:27.216Z,32.38